Terminal Aerodrome Forecast
Issued by NWS

Current Version | Previous Version | Text Only | Print | Product List | Glossary Off
Versions: 1 2 3 4 5 6 7 8 9 10 11 12 13 14 15 16 17 18 19 20 21

000
FTUS41 KPBZ 161900 AAA
TAFMGW
TAF AMD
KMGW 161915Z 1619/1718 19008KT P6SM -SHRA BKN022
      TEMPO 1619/1620 1 1/2SM RA
     FM162200 24010G18KT P6SM -SHRA OVC012
     FM171000 26008KT P6SM OVC015
     FM171500 26012G22KT P6SM BKN025=

USA.gov is the U.S. government's official web portal to all federal, state and local government web resources and services.